Jurua, Brazil
Current Conditions -  °F | °C
As of 10:00 AM on Saturday 25 Oct 2014 (Local Time) from SBUY Reporting Station
Drizzle Drizzle  
Wind Chill: 75°   Ceiling: 600
Heat Index: 75°   Visibility: 3mi
Dew Point: 73°   Wind: 0mph
Humidity: 94%   Direction: NA
Pressure: 29.91"   Gusts: NA
Location:  3.49°S, 66.07°W
Report Text: SBUY 251400Z 00000KT 5000 -DZ BKN006 BKN020 24/23 Q1013
Loading
Personal Weather Stations






























Interactive Weather Map
Tropical Storm Tracking
New forecast layout! Learn more

10-Day Weather Forecast

Advertisements
Track Severe Weather on mobile